sensor_id;sensor_type;location;lat;lon;timestamp;P1;durP1;ratioP1;P2;durP2;ratioP2
12986;SDS011;58897;51.960;5.582;2022-09-27T00:01:53;2.10;;;0.70;;
12986;SDS011;58897;51.960;5.582;2022-09-27T00:04:20;2.63;;;0.93;;
12986;SDS011;58897;51.960;5.582;2022-09-27T00:06:47;2.20;;;0.40;;
12986;SDS011;58897;51.960;5.582;2022-09-27T00:09:13;2.30;;;0.40;;
12986;SDS011;58897;51.960;5.582;2022-09-27T00:11:40;3.80;;;0.73;;
12986;SDS011;58897;51.960;5.582;2022-09-27T00:14:10;2.93;;;0.70;;
12986;SDS011;58897;51.960;5.582;2022-09-27T00:16:39;2.73;;;0.53;;
12986;SDS011;58897;51.960;5.582;2022-09-27T00:19:08;0.70;;;0.50;;
12986;SDS011;58897;51.960;5.582;2022-09-27T00:21:37;1.57;;;0.60;;
12986;SDS011;58897;51.960;5.582;2022-09-27T00:24:03;1.03;;;0.40;;
12986;SDS011;58897;51.960;5.582;2022-09-27T00:26:30;5.53;;;0.53;;
12986;SDS011;58897;51.960;5.582;2022-09-27T00:28:57;1.37;;;0.60;;
12986;SDS011;58897;51.960;5.582;2022-09-27T00:31:24;2.67;;;0.70;;
12986;SDS011;58897;51.960;5.582;2022-09-27T00:33:55;1.80;;;0.47;;
12986;SDS011;58897;51.960;5.582;2022-09-27T00:36:23;3.00;;;0.60;;
12986;SDS011;58897;51.960;5.582;2022-09-27T00:38:51;2.20;;;0.50;;
12986;SDS011;58897;51.960;5.582;2022-09-27T00:41:20;2.87;;;0.80;;
12986;SDS011;58897;51.960;5.582;2022-09-27T00:43:54;2.50;;;0.60;;
12986;SDS011;58897;51.960;5.582;2022-09-27T00:46:37;3.00;;;0.57;;
12986;SDS011;58897;51.960;5.582;2022-09-27T00:49:18;1.50;;;0.50;;
12986;SDS011;58897;51.960;5.582;2022-09-27T00:51:50;1.03;;;0.50;;
12986;SDS011;58897;51.960;5.582;2022-09-27T00:54:23;2.33;;;0.70;;
12986;SDS011;58897;51.960;5.582;2022-09-27T00:56:53;1.20;;;0.60;;
12986;SDS011;58897;51.960;5.582;2022-09-27T00:59:28;2.03;;;0.83;;
12986;SDS011;58897;51.960;5.582;2022-09-27T01:01:59;1.53;;;0.57;;
12986;SDS011;58897;51.960;5.582;2022-09-27T01:04:27;1.97;;;0.60;;
12986;SDS011;58897;51.960;5.582;2022-09-27T01:06:55;0.50;;;0.50;;
12986;SDS011;58897;51.960;5.582;2022-09-27T01:09:22;0.97;;;0.67;;
12986;SDS011;58897;51.960;5.582;2022-09-27T01:23:59;0.70;;;0.50;;
12986;SDS011;58897;51.960;5.582;2022-09-27T01:26:44;2.97;;;0.60;;
12986;SDS011;58897;51.960;5.582;2022-09-27T01:29:42;0.60;;;0.60;;
12986;SDS011;58897;51.960;5.582;2022-09-27T01:32:49;1.60;;;0.60;;
12986;SDS011;58897;51.960;5.582;2022-09-27T01:35:30;0.57;;;0.50;;
12986;SDS011;58897;51.960;5.582;2022-09-27T01:38:07;2.90;;;0.60;;
12986;SDS011;58897;51.960;5.582;2022-09-27T01:43:25;2.77;;;0.80;;
12986;SDS011;58897;51.960;5.582;2022-09-27T01:46:14;1.37;;;0.50;;
12986;SDS011;58897;51.960;5.582;2022-09-27T01:48:46;2.97;;;0.80;;
12986;SDS011;58897;51.960;5.582;2022-09-27T01:51:16;0.60;;;0.60;;
12986;SDS011;58897;51.960;5.582;2022-09-27T01:53:49;1.50;;;0.70;;
12986;SDS011;58897;51.960;5.582;2022-09-27T01:56:20;3.43;;;0.60;;
12986;SDS011;58897;51.960;5.582;2022-09-27T02:01:26;1.83;;;0.73;;
12986;SDS011;58897;51.960;5.582;2022-09-27T02:03:55;2.10;;;0.50;;
12986;SDS011;58897;51.960;5.582;2022-09-27T02:06:35;2.93;;;0.70;;
12986;SDS011;58897;51.960;5.582;2022-09-27T02:09:10;1.23;;;0.47;;
12986;SDS011;58897;51.960;5.582;2022-09-27T02:11:40;2.70;;;0.40;;
12986;SDS011;58897;51.960;5.582;2022-09-27T02:14:13;1.07;;;0.43;;
12986;SDS011;58897;51.960;5.582;2022-09-27T02:16:48;1.60;;;0.60;;
12986;SDS011;58897;51.960;5.582;2022-09-27T02:24:55;0.77;;;0.63;;
12986;SDS011;58897;51.960;5.582;2022-09-27T02:27:30;3.27;;;0.80;;
12986;SDS011;58897;51.960;5.582;2022-09-27T02:30:05;0.83;;;0.50;;
12986;SDS011;58897;51.960;5.582;2022-09-27T02:32:37;4.17;;;0.50;;
12986;SDS011;58897;51.960;5.582;2022-09-27T02:35:14;3.20;;;0.63;;
12986;SDS011;58897;51.960;5.582;2022-09-27T02:37:47;1.80;;;0.80;;
12986;SDS011;58897;51.960;5.582;2022-09-27T02:40:14;2.63;;;0.60;;
12986;SDS011;58897;51.960;5.582;2022-09-27T02:42:41;1.40;;;0.50;;
12986;SDS011;58897;51.960;5.582;2022-09-27T02:45:09;1.17;;;0.70;;
12986;SDS011;58897;51.960;5.582;2022-09-27T02:53:23;1.00;;;0.57;;
12986;SDS011;58897;51.960;5.582;2022-09-27T02:58:57;4.13;;;0.90;;
12986;SDS011;58897;51.960;5.582;2022-09-27T03:01:49;0.50;;;0.50;;
12986;SDS011;58897;51.960;5.582;2022-09-27T03:04:28;1.07;;;0.63;;
12986;SDS011;58897;51.960;5.582;2022-09-27T03:06:59;1.30;;;0.73;;
12986;SDS011;58897;51.960;5.582;2022-09-27T03:09:28;0.80;;;0.60;;
12986;SDS011;58897;51.960;5.582;2022-09-27T03:12:05;1.77;;;0.60;;
12986;SDS011;58897;51.960;5.582;2022-09-27T03:14:31;5.50;;;0.80;;
12986;SDS011;58897;51.960;5.582;2022-09-27T03:16:57;0.90;;;0.40;;
12986;SDS011;58897;51.960;5.582;2022-09-27T03:19:24;2.83;;;1.10;;
12986;SDS011;58897;51.960;5.582;2022-09-27T03:21:50;3.83;;;0.80;;
12986;SDS011;58897;51.960;5.582;2022-09-27T03:24:17;3.13;;;0.80;;
12986;SDS011;58897;51.960;5.582;2022-09-27T03:26:43;1.27;;;0.60;;
12986;SDS011;58897;51.960;5.582;2022-09-27T03:29:09;2.83;;;0.70;;
12986;SDS011;58897;51.960;5.582;2022-09-27T03:31:36;3.73;;;0.60;;
12986;SDS011;58897;51.960;5.582;2022-09-27T03:34:02;3.90;;;0.80;;
12986;SDS011;58897;51.960;5.582;2022-09-27T03:36:29;2.77;;;0.67;;
12986;SDS011;58897;51.960;5.582;2022-09-27T03:38:55;2.23;;;0.50;;
12986;SDS011;58897;51.960;5.582;2022-09-27T03:41:22;4.70;;;1.17;;
12986;SDS011;58897;51.960;5.582;2022-09-27T03:43:49;3.07;;;0.80;;
12986;SDS011;58897;51.960;5.582;2022-09-27T03:46:15;2.10;;;0.80;;
12986;SDS011;58897;51.960;5.582;2022-09-27T03:48:42;1.60;;;0.83;;
12986;SDS011;58897;51.960;5.582;2022-09-27T03:51:08;4.00;;;0.57;;
12986;SDS011;58897;51.960;5.582;2022-09-27T03:53:37;2.53;;;0.67;;
12986;SDS011;58897;51.960;5.582;2022-09-27T03:56:03;2.73;;;0.60;;
12986;SDS011;58897;51.960;5.582;2022-09-27T03:58:30;2.27;;;0.70;;
12986;SDS011;58897;51.960;5.582;2022-09-27T04:00:56;4.00;;;0.87;;
12986;SDS011;58897;51.960;5.582;2022-09-27T04:03:23;1.43;;;0.80;;
12986;SDS011;58897;51.960;5.582;2022-09-27T04:05:49;1.70;;;0.70;;
12986;SDS011;58897;51.960;5.582;2022-09-27T04:08:16;3.67;;;1.23;;
12986;SDS011;58897;51.960;5.582;2022-09-27T04:10:42;2.07;;;0.60;;
12986;SDS011;58897;51.960;5.582;2022-09-27T04:13:08;2.60;;;0.83;;
12986;SDS011;58897;51.960;5.582;2022-09-27T04:15:35;2.93;;;0.80;;
12986;SDS011;58897;51.960;5.582;2022-09-27T04:18:05;5.73;;;0.90;;
12986;SDS011;58897;51.960;5.582;2022-09-27T04:20:32;2.07;;;0.87;;
12986;SDS011;58897;51.960;5.582;2022-09-27T04:23:00;3.87;;;1.07;;
12986;SDS011;58897;51.960;5.582;2022-09-27T04:25:26;0.87;;;0.83;;
12986;SDS011;58897;51.960;5.582;2022-09-27T04:27:52;1.87;;;0.80;;
12986;SDS011;58897;51.960;5.582;2022-09-27T04:30:20;3.63;;;0.90;;
12986;SDS011;58897;51.960;5.582;2022-09-27T04:32:47;2.43;;;0.63;;
12986;SDS011;58897;51.960;5.582;2022-09-27T04:35:13;5.00;;;0.60;;
12986;SDS011;58897;51.960;5.582;2022-09-27T04:37:59;1.63;;;0.67;;
12986;SDS011;58897;51.960;5.582;2022-09-27T04:40:25;2.83;;;0.80;;
12986;SDS011;58897;51.960;5.582;2022-09-27T04:42:52;1.97;;;0.80;;
12986;SDS011;58897;51.960;5.582;2022-09-27T04:45:18;2.17;;;0.70;;
12986;SDS011;58897;51.960;5.582;2022-09-27T04:47:45;2.53;;;0.90;;
12986;SDS011;58897;51.960;5.582;2022-09-27T04:50:14;2.57;;;0.77;;
12986;SDS011;58897;51.960;5.582;2022-09-27T04:52:41;2.50;;;0.60;;
12986;SDS011;58897;51.960;5.582;2022-09-27T04:55:08;6.33;;;0.90;;
12986;SDS011;58897;51.960;5.582;2022-09-27T04:57:35;4.00;;;0.60;;
12986;SDS011;58897;51.960;5.582;2022-09-27T05:00:02;2.47;;;0.67;;
12986;SDS011;58897;51.960;5.582;2022-09-27T05:02:29;1.93;;;0.80;;
12986;SDS011;58897;51.960;5.582;2022-09-27T05:04:56;1.53;;;0.63;;
12986;SDS011;58897;51.960;5.582;2022-09-27T05:07:24;3.60;;;0.73;;
12986;SDS011;58897;51.960;5.582;2022-09-27T05:09:51;0.30;;;0.30;;
12986;SDS011;58897;51.960;5.582;2022-09-27T05:12:18;1.63;;;0.70;;
12986;SDS011;58897;51.960;5.582;2022-09-27T05:14:45;1.83;;;0.60;;
12986;SDS011;58897;51.960;5.582;2022-09-27T05:17:12;4.00;;;0.60;;
12986;SDS011;58897;51.960;5.582;2022-09-27T05:19:38;3.10;;;0.60;;
12986;SDS011;58897;51.960;5.582;2022-09-27T05:22:05;0.90;;;0.67;;
12986;SDS011;58897;51.960;5.582;2022-09-27T05:24:32;1.03;;;0.80;;
12986;SDS011;58897;51.960;5.582;2022-09-27T05:26:59;3.60;;;0.93;;
12986;SDS011;58897;51.960;5.582;2022-09-27T05:29:27;2.70;;;0.80;;
12986;SDS011;58897;51.960;5.582;2022-09-27T05:31:53;0.93;;;0.60;;
12986;SDS011;58897;51.960;5.582;2022-09-27T05:34:19;4.50;;;0.93;;
12986;SDS011;58897;51.960;5.582;2022-09-27T05:36:46;1.13;;;0.60;;
12986;SDS011;58897;51.960;5.582;2022-09-27T05:39:13;2.37;;;0.70;;
12986;SDS011;58897;51.960;5.582;2022-09-27T05:41:42;0.50;;;0.33;;
12986;SDS011;58897;51.960;5.582;2022-09-27T05:44:09;3.53;;;0.90;;
12986;SDS011;58897;51.960;5.582;2022-09-27T05:46:35;1.93;;;0.70;;
12986;SDS011;58897;51.960;5.582;2022-09-27T05:49:04;3.33;;;0.80;;
12986;SDS011;58897;51.960;5.582;2022-09-27T05:51:31;3.10;;;0.57;;
12986;SDS011;58897;51.960;5.582;2022-09-27T05:53:58;1.87;;;0.80;;
12986;SDS011;58897;51.960;5.582;2022-09-27T05:56:24;2.67;;;0.90;;
12986;SDS011;58897;51.960;5.582;2022-09-27T05:58:51;3.00;;;1.00;;
12986;SDS011;58897;51.960;5.582;2022-09-27T06:01:17;3.73;;;1.20;;
12986;SDS011;58897;51.960;5.582;2022-09-27T06:03:44;2.40;;;0.70;;
12986;SDS011;58897;51.960;5.582;2022-09-27T06:06:12;2.63;;;0.70;;
12986;SDS011;58897;51.960;5.582;2022-09-27T06:08:40;2.63;;;0.73;;
12986;SDS011;58897;51.960;5.582;2022-09-27T06:11:07;0.70;;;0.70;;
12986;SDS011;58897;51.960;5.582;2022-09-27T06:13:36;1.80;;;0.50;;
12986;SDS011;58897;51.960;5.582;2022-09-27T06:16:04;2.63;;;0.57;;
12986;SDS011;58897;51.960;5.582;2022-09-27T06:18:32;1.43;;;0.67;;
12986;SDS011;58897;51.960;5.582;2022-09-27T06:20:58;1.23;;;0.60;;
12986;SDS011;58897;51.960;5.582;2022-09-27T06:23:26;4.00;;;0.60;;
12986;SDS011;58897;51.960;5.582;2022-09-27T06:25:52;2.10;;;0.73;;
12986;SDS011;58897;51.960;5.582;2022-09-27T06:28:20;1.70;;;0.90;;
12986;SDS011;58897;51.960;5.582;2022-09-27T06:30:47;2.73;;;0.60;;
12986;SDS011;58897;51.960;5.582;2022-09-27T06:33:16;1.13;;;0.57;;
12986;SDS011;58897;51.960;5.582;2022-09-27T06:35:45;0.97;;;0.60;;
12986;SDS011;58897;51.960;5.582;2022-09-27T06:38:13;1.17;;;0.60;;
12986;SDS011;58897;51.960;5.582;2022-09-27T06:40:41;1.60;;;0.50;;
12986;SDS011;58897;51.960;5.582;2022-09-27T06:43:12;1.43;;;0.60;;
12986;SDS011;58897;51.960;5.582;2022-09-27T06:45:40;2.30;;;1.23;;
12986;SDS011;58897;51.960;5.582;2022-09-27T06:48:08;2.83;;;0.87;;
12986;SDS011;58897;51.960;5.582;2022-09-27T06:50:38;1.50;;;0.80;;
12986;SDS011;58897;51.960;5.582;2022-09-27T06:53:06;0.73;;;0.50;;
12986;SDS011;58897;51.960;5.582;2022-09-27T06:55:37;1.90;;;0.53;;
12986;SDS011;58897;51.960;5.582;2022-09-27T06:58:04;1.10;;;0.50;;
12986;SDS011;58897;51.960;5.582;2022-09-27T07:00:50;1.13;;;0.70;;
12986;SDS011;58897;51.960;5.582;2022-09-27T07:03:19;4.10;;;1.10;;
12986;SDS011;58897;51.960;5.582;2022-09-27T07:05:54;4.50;;;0.70;;
12986;SDS011;58897;51.960;5.582;2022-09-27T07:08:22;0.73;;;0.63;;
12986;SDS011;58897;51.960;5.582;2022-09-27T07:10:51;2.53;;;1.20;;
12986;SDS011;58897;51.960;5.582;2022-09-27T07:13:18;3.73;;;1.03;;
12986;SDS011;58897;51.960;5.582;2022-09-27T07:15:45;2.30;;;0.90;;
12986;SDS011;58897;51.960;5.582;2022-09-27T07:18:11;2.53;;;0.87;;
12986;SDS011;58897;51.960;5.582;2022-09-27T07:20:37;2.07;;;1.00;;
12986;SDS011;58897;51.960;5.582;2022-09-27T07:23:05;5.03;;;0.83;;
12986;SDS011;58897;51.960;5.582;2022-09-27T07:25:32;0.93;;;0.93;;
12986;SDS011;58897;51.960;5.582;2022-09-27T07:28:03;2.87;;;1.20;;
12986;SDS011;58897;51.960;5.582;2022-09-27T07:30:31;0.80;;;0.80;;
12986;SDS011;58897;51.960;5.582;2022-09-27T07:33:00;1.43;;;0.80;;
12986;SDS011;58897;51.960;5.582;2022-09-27T07:35:27;2.10;;;0.87;;
12986;SDS011;58897;51.960;5.582;2022-09-27T07:37:55;1.97;;;0.70;;
12986;SDS011;58897;51.960;5.582;2022-09-27T07:40:22;2.67;;;0.70;;
12986;SDS011;58897;51.960;5.582;2022-09-27T07:42:56;4.20;;;0.70;;
12986;SDS011;58897;51.960;5.582;2022-09-27T07:45:24;1.90;;;0.90;;
12986;SDS011;58897;51.960;5.582;2022-09-27T07:47:51;1.43;;;0.90;;
12986;SDS011;58897;51.960;5.582;2022-09-27T07:50:18;1.67;;;0.60;;
12986;SDS011;58897;51.960;5.582;2022-09-27T07:52:45;1.83;;;1.00;;
12986;SDS011;58897;51.960;5.582;2022-09-27T07:55:15;2.27;;;0.83;;
12986;SDS011;58897;51.960;5.582;2022-09-27T07:57:43;1.77;;;0.87;;
12986;SDS011;58897;51.960;5.582;2022-09-27T08:00:13;2.33;;;0.90;;
12986;SDS011;58897;51.960;5.582;2022-09-27T08:02:42;2.30;;;1.30;;
12986;SDS011;58897;51.960;5.582;2022-09-27T08:05:09;4.90;;;1.10;;
12986;SDS011;58897;51.960;5.582;2022-09-27T08:07:37;1.03;;;0.93;;
12986;SDS011;58897;51.960;5.582;2022-09-27T08:10:05;2.70;;;1.17;;
12986;SDS011;58897;51.960;5.582;2022-09-27T08:12:33;2.47;;;1.40;;
12986;SDS011;58897;51.960;5.582;2022-09-27T08:15:00;2.43;;;1.77;;
12986;SDS011;58897;51.960;5.582;2022-09-27T08:17:27;2.83;;;1.20;;
12986;SDS011;58897;51.960;5.582;2022-09-27T08:19:54;2.83;;;1.10;;
12986;SDS011;58897;51.960;5.582;2022-09-27T08:22:21;6.07;;;1.30;;
12986;SDS011;58897;51.960;5.582;2022-09-27T08:24:47;3.60;;;1.00;;
12986;SDS011;58897;51.960;5.582;2022-09-27T08:27:15;2.57;;;1.20;;
12986;SDS011;58897;51.960;5.582;2022-09-27T08:29:42;2.73;;;1.10;;
12986;SDS011;58897;51.960;5.582;2022-09-27T08:32:08;2.67;;;1.30;;
12986;SDS011;58897;51.960;5.582;2022-09-27T08:34:36;1.50;;;1.10;;
12986;SDS011;58897;51.960;5.582;2022-09-27T08:37:03;4.87;;;1.20;;
12986;SDS011;58897;51.960;5.582;2022-09-27T08:39:29;2.17;;;1.10;;
12986;SDS011;58897;51.960;5.582;2022-09-27T08:42:01;1.40;;;0.97;;
12986;SDS011;58897;51.960;5.582;2022-09-27T08:50:03;1.23;;;1.00;;
12986;SDS011;58897;51.960;5.582;2022-09-27T08:52:47;2.40;;;1.23;;
12986;SDS011;58897;51.960;5.582;2022-09-27T08:57:57;3.90;;;1.13;;
12986;SDS011;58897;51.960;5.582;2022-09-27T09:00:25;1.70;;;1.57;;
12986;SDS011;58897;51.960;5.582;2022-09-27T09:02:54;2.47;;;1.40;;
12986;SDS011;58897;51.960;5.582;2022-09-27T09:05:26;2.10;;;1.60;;
12986;SDS011;58897;51.960;5.582;2022-09-27T09:19:34;1.30;;;0.90;;
12986;SDS011;58897;51.960;5.582;2022-09-27T09:25:15;1.23;;;0.63;;
12986;SDS011;58897;51.960;5.582;2022-09-27T09:33:20;1.37;;;0.90;;
12986;SDS011;58897;51.960;5.582;2022-09-27T09:36:19;1.63;;;1.07;;
12986;SDS011;58897;51.960;5.582;2022-09-27T09:41:20;2.10;;;0.70;;
12986;SDS011;58897;51.960;5.582;2022-09-27T09:44:00;3.23;;;0.90;;
12986;SDS011;58897;51.960;5.582;2022-09-27T09:49:21;1.27;;;0.70;;
12986;SDS011;58897;51.960;5.582;2022-09-27T09:52:37;2.40;;;0.70;;
12986;SDS011;58897;51.960;5.582;2022-09-27T09:54:45;0.90;;;0.60;;
12986;SDS011;58897;51.960;5.582;2022-09-27T09:57:17;0.83;;;0.70;;
12986;SDS011;58897;51.960;5.582;2022-09-27T09:59:58;2.57;;;0.50;;
12986;SDS011;58897;51.960;5.582;2022-09-27T10:02:30;4.73;;;0.70;;
12986;SDS011;58897;51.960;5.582;2022-09-27T10:04:59;2.23;;;0.60;;
12986;SDS011;58897;51.960;5.582;2022-09-27T10:07:33;1.40;;;0.50;;
12986;SDS011;58897;51.960;5.582;2022-09-27T10:10:02;1.20;;;0.60;;
12986;SDS011;58897;51.960;5.582;2022-09-27T10:12:30;2.00;;;0.70;;
12986;SDS011;58897;51.960;5.582;2022-09-27T10:14:58;2.43;;;0.67;;
12986;SDS011;58897;51.960;5.582;2022-09-27T10:17:32;2.53;;;0.60;;
12986;SDS011;58897;51.960;5.582;2022-09-27T10:20:03;3.77;;;0.83;;
12986;SDS011;58897;51.960;5.582;2022-09-27T10:22:35;3.73;;;0.50;;
12986;SDS011;58897;51.960;5.582;2022-09-27T10:25:05;2.30;;;0.47;;
12986;SDS011;58897;51.960;5.582;2022-09-27T10:30:34;1.07;;;0.50;;
12986;SDS011;58897;51.960;5.582;2022-09-27T10:33:04;0.90;;;0.50;;
12986;SDS011;58897;51.960;5.582;2022-09-27T10:35:43;1.90;;;0.40;;
12986;SDS011;58897;51.960;5.582;2022-09-27T10:40:42;0.40;;;0.40;;
12986;SDS011;58897;51.960;5.582;2022-09-27T10:48:34;1.63;;;0.43;;
12986;SDS011;58897;51.960;5.582;2022-09-27T10:51:03;0.63;;;0.63;;
12986;SDS011;58897;51.960;5.582;2022-09-27T10:53:33;1.43;;;0.70;;
12986;SDS011;58897;51.960;5.582;2022-09-27T10:56:01;1.63;;;0.33;;
12986;SDS011;58897;51.960;5.582;2022-09-27T10:58:35;1.20;;;0.83;;
12986;SDS011;58897;51.960;5.582;2022-09-27T11:01:07;1.53;;;0.80;;
12986;SDS011;58897;51.960;5.582;2022-09-27T11:03:58;1.97;;;1.00;;
12986;SDS011;58897;51.960;5.582;2022-09-27T11:09:08;3.07;;;0.77;;
12986;SDS011;58897;51.960;5.582;2022-09-27T11:11:41;1.30;;;0.43;;
12986;SDS011;58897;51.960;5.582;2022-09-27T11:16:54;1.00;;;0.50;;
12986;SDS011;58897;51.960;5.582;2022-09-27T11:22:18;2.63;;;0.60;;
12986;SDS011;58897;51.960;5.582;2022-09-27T11:30:20;0.73;;;0.50;;
12986;SDS011;58897;51.960;5.582;2022-09-27T11:38:36;2.07;;;0.70;;
12986;SDS011;58897;51.960;5.582;2022-09-27T11:41:39;0.60;;;0.50;;
12986;SDS011;58897;51.960;5.582;2022-09-27T11:50:02;0.70;;;0.40;;
12986;SDS011;58897;51.960;5.582;2022-09-27T11:52:49;1.80;;;0.77;;
12986;SDS011;58897;51.960;5.582;2022-09-27T12:01:48;0.80;;;0.40;;
12986;SDS011;58897;51.960;5.582;2022-09-27T12:06:48;0.40;;;0.40;;
12986;SDS011;58897;51.960;5.582;2022-09-27T12:09:27;0.60;;;0.40;;
12986;SDS011;58897;51.960;5.582;2022-09-27T12:12:09;1.90;;;0.50;;
12986;SDS011;58897;51.960;5.582;2022-09-27T12:14:44;1.27;;;0.70;;
12986;SDS011;58897;51.960;5.582;2022-09-27T12:17:59;3.47;;;0.60;;
12986;SDS011;58897;51.960;5.582;2022-09-27T12:20:19;0.60;;;0.60;;
12986;SDS011;58897;51.960;5.582;2022-09-27T12:22:54;0.90;;;0.60;;
12986;SDS011;58897;51.960;5.582;2022-09-27T12:25:31;0.73;;;0.73;;
12986;SDS011;58897;51.960;5.582;2022-09-27T12:30:47;1.27;;;0.60;;
12986;SDS011;58897;51.960;5.582;2022-09-27T12:36:27;1.00;;;0.80;;
12986;SDS011;58897;51.960;5.582;2022-09-27T12:39:05;2.00;;;0.60;;
12986;SDS011;58897;51.960;5.582;2022-09-27T12:41:43;0.77;;;0.40;;
12986;SDS011;58897;51.960;5.582;2022-09-27T12:44:16;0.60;;;0.50;;
12986;SDS011;58897;51.960;5.582;2022-09-27T12:52:26;1.63;;;0.70;;
12986;SDS011;58897;51.960;5.582;2022-09-27T12:55:14;1.83;;;0.80;;
12986;SDS011;58897;51.960;5.582;2022-09-27T13:00:58;1.47;;;0.90;;
12986;SDS011;58897;51.960;5.582;2022-09-27T13:03:48;1.97;;;1.17;;
12986;SDS011;58897;51.960;5.582;2022-09-27T13:06:52;2.63;;;1.10;;
12986;SDS011;58897;51.960;5.582;2022-09-27T13:12:25;1.80;;;1.00;;
12986;SDS011;58897;51.960;5.582;2022-09-27T13:14:57;1.57;;;0.80;;
12986;SDS011;58897;51.960;5.582;2022-09-27T13:17:31;1.30;;;0.70;;
12986;SDS011;58897;51.960;5.582;2022-09-27T13:23:01;1.90;;;0.70;;
12986;SDS011;58897;51.960;5.582;2022-09-27T13:39:13;0.77;;;0.47;;
12986;SDS011;58897;51.960;5.582;2022-09-27T13:46:48;0.93;;;0.57;;
12986;SDS011;58897;51.960;5.582;2022-09-27T13:49:37;1.90;;;0.60;;
12986;SDS011;58897;51.960;5.582;2022-09-27T13:52:27;0.77;;;0.60;;
12986;SDS011;58897;51.960;5.582;2022-09-27T13:55:00;0.60;;;0.50;;
12986;SDS011;58897;51.960;5.582;2022-09-27T13:57:45;0.60;;;0.60;;
12986;SDS011;58897;51.960;5.582;2022-09-27T14:00:24;1.87;;;0.70;;
12986;SDS011;58897;51.960;5.582;2022-09-27T14:02:58;2.37;;;1.83;;
12986;SDS011;58897;51.960;5.582;2022-09-27T14:05:26;1.73;;;1.00;;
12986;SDS011;58897;51.960;5.582;2022-09-27T14:07:57;1.87;;;0.80;;
12986;SDS011;58897;51.960;5.582;2022-09-27T14:10:25;2.00;;;0.60;;
12986;SDS011;58897;51.960;5.582;2022-09-27T14:12:52;0.50;;;0.50;;
12986;SDS011;58897;51.960;5.582;2022-09-27T14:15:21;1.37;;;0.63;;
12986;SDS011;58897;51.960;5.582;2022-09-27T14:17:50;1.47;;;0.97;;
12986;SDS011;58897;51.960;5.582;2022-09-27T14:20:37;0.30;;;0.30;;
12986;SDS011;58897;51.960;5.582;2022-09-27T14:23:17;1.00;;;0.50;;
12986;SDS011;58897;51.960;5.582;2022-09-27T14:25:47;2.03;;;0.60;;
12986;SDS011;58897;51.960;5.582;2022-09-27T14:28:21;0.30;;;0.30;;
12986;SDS011;58897;51.960;5.582;2022-09-27T14:33:39;0.50;;;0.50;;
12986;SDS011;58897;51.960;5.582;2022-09-27T14:36:06;1.70;;;0.43;;
12986;SDS011;58897;51.960;5.582;2022-09-27T14:39:11;2.10;;;0.50;;
12986;SDS011;58897;51.960;5.582;2022-09-27T14:42:01;3.13;;;0.53;;
12986;SDS011;58897;51.960;5.582;2022-09-27T14:44:30;0.53;;;0.50;;
12986;SDS011;58897;51.960;5.582;2022-09-27T14:47:08;0.63;;;0.60;;
12986;SDS011;58897;51.960;5.582;2022-09-27T14:49:44;0.90;;;0.50;;
12986;SDS011;58897;51.960;5.582;2022-09-27T14:52:16;3.70;;;0.67;;
12986;SDS011;58897;51.960;5.582;2022-09-27T14:55:00;0.70;;;0.60;;
12986;SDS011;58897;51.960;5.582;2022-09-27T14:57:33;0.63;;;0.50;;
12986;SDS011;58897;51.960;5.582;2022-09-27T15:00:14;1.90;;;0.77;;
12986;SDS011;58897;51.960;5.582;2022-09-27T15:02:46;1.03;;;0.60;;
12986;SDS011;58897;51.960;5.582;2022-09-27T15:05:16;0.90;;;0.83;;
12986;SDS011;58897;51.960;5.582;2022-09-27T15:07:45;0.57;;;0.50;;
12986;SDS011;58897;51.960;5.582;2022-09-27T15:10:14;2.33;;;1.13;;
12986;SDS011;58897;51.960;5.582;2022-09-27T15:12:49;1.40;;;0.90;;
12986;SDS011;58897;51.960;5.582;2022-09-27T15:15:21;1.70;;;1.27;;
12986;SDS011;58897;51.960;5.582;2022-09-27T15:17:49;1.90;;;1.13;;
12986;SDS011;58897;51.960;5.582;2022-09-27T15:20:25;2.43;;;1.30;;
12986;SDS011;58897;51.960;5.582;2022-09-27T15:23:01;1.23;;;1.13;;
12986;SDS011;58897;51.960;5.582;2022-09-27T15:28:04;1.40;;;1.27;;
12986;SDS011;58897;51.960;5.582;2022-09-27T15:30:39;3.20;;;1.30;;
12986;SDS011;58897;51.960;5.582;2022-09-27T15:33:26;2.43;;;1.27;;
12986;SDS011;58897;51.960;5.582;2022-09-27T15:36:00;2.00;;;1.30;;
12986;SDS011;58897;51.960;5.582;2022-09-27T15:43:40;2.80;;;1.60;;
12986;SDS011;58897;51.960;5.582;2022-09-27T15:51:45;2.43;;;1.60;;
12986;SDS011;58897;51.960;5.582;2022-09-27T15:54:16;2.90;;;1.80;;
12986;SDS011;58897;51.960;5.582;2022-09-27T15:56:43;4.07;;;2.40;;
12986;SDS011;58897;51.960;5.582;2022-09-27T15:59:11;4.50;;;2.00;;
12986;SDS011;58897;51.960;5.582;2022-09-27T16:01:44;3.77;;;2.00;;
12986;SDS011;58897;51.960;5.582;2022-09-27T16:04:12;3.27;;;2.30;;
12986;SDS011;58897;51.960;5.582;2022-09-27T16:06:38;3.07;;;1.90;;
12986;SDS011;58897;51.960;5.582;2022-09-27T16:09:09;2.43;;;2.10;;
12986;SDS011;58897;51.960;5.582;2022-09-27T16:11:41;3.50;;;2.20;;
12986;SDS011;58897;51.960;5.582;2022-09-27T16:14:08;2.13;;;1.93;;
12986;SDS011;58897;51.960;5.582;2022-09-27T16:16:34;3.10;;;2.37;;
12986;SDS011;58897;51.960;5.582;2022-09-27T16:19:01;4.07;;;2.00;;
12986;SDS011;58897;51.960;5.582;2022-09-27T16:21:27;2.30;;;2.10;;
12986;SDS011;58897;51.960;5.582;2022-09-27T16:23:54;2.60;;;1.77;;
12986;SDS011;58897;51.960;5.582;2022-09-27T16:26:20;2.20;;;1.70;;
12986;SDS011;58897;51.960;5.582;2022-09-27T16:28:47;3.10;;;1.80;;
12986;SDS011;58897;51.960;5.582;2022-09-27T16:31:14;1.87;;;1.30;;
12986;SDS011;58897;51.960;5.582;2022-09-27T16:33:42;3.90;;;1.53;;
12986;SDS011;58897;51.960;5.582;2022-09-27T16:36:08;1.40;;;0.97;;
12986;SDS011;58897;51.960;5.582;2022-09-27T16:38:40;2.10;;;1.17;;
12986;SDS011;58897;51.960;5.582;2022-09-27T16:41:07;2.63;;;1.30;;
12986;SDS011;58897;51.960;5.582;2022-09-27T16:43:34;2.73;;;1.30;;
12986;SDS011;58897;51.960;5.582;2022-09-27T16:46:06;2.87;;;1.00;;
12986;SDS011;58897;51.960;5.582;2022-09-27T16:48:34;1.33;;;0.80;;
12986;SDS011;58897;51.960;5.582;2022-09-27T16:51:04;0.70;;;0.70;;
12986;SDS011;58897;51.960;5.582;2022-09-27T16:53:51;1.37;;;0.90;;
12986;SDS011;58897;51.960;5.582;2022-09-27T16:56:17;2.57;;;1.10;;
12986;SDS011;58897;51.960;5.582;2022-09-27T16:58:45;1.70;;;1.43;;
12986;SDS011;58897;51.960;5.582;2022-09-27T17:01:13;3.30;;;2.00;;
12986;SDS011;58897;51.960;5.582;2022-09-27T17:03:42;5.23;;;2.97;;
12986;SDS011;58897;51.960;5.582;2022-09-27T17:06:15;6.83;;;2.10;;
12986;SDS011;58897;51.960;5.582;2022-09-27T17:08:43;3.27;;;1.70;;
12986;SDS011;58897;51.960;5.582;2022-09-27T17:11:18;2.27;;;2.00;;
12986;SDS011;58897;51.960;5.582;2022-09-27T17:13:45;1.80;;;1.70;;
12986;SDS011;58897;51.960;5.582;2022-09-27T17:16:14;4.40;;;1.80;;
12986;SDS011;58897;51.960;5.582;2022-09-27T17:18:41;1.63;;;1.33;;
12986;SDS011;58897;51.960;5.582;2022-09-27T17:21:07;3.27;;;1.80;;
12986;SDS011;58897;51.960;5.582;2022-09-27T17:23:34;3.93;;;1.43;;
12986;SDS011;58897;51.960;5.582;2022-09-27T17:26:08;1.93;;;1.23;;
12986;SDS011;58897;51.960;5.582;2022-09-27T17:28:41;2.87;;;1.60;;
12986;SDS011;58897;51.960;5.582;2022-09-27T17:31:08;1.63;;;1.50;;
12986;SDS011;58897;51.960;5.582;2022-09-27T17:33:39;3.63;;;1.50;;
12986;SDS011;58897;51.960;5.582;2022-09-27T17:36:14;3.83;;;1.60;;
12986;SDS011;58897;51.960;5.582;2022-09-27T17:38:45;1.80;;;1.70;;
12986;SDS011;58897;51.960;5.582;2022-09-27T17:41:14;1.33;;;1.23;;
12986;SDS011;58897;51.960;5.582;2022-09-27T17:43:42;1.90;;;1.40;;
12986;SDS011;58897;51.960;5.582;2022-09-27T17:46:16;1.83;;;1.73;;
12986;SDS011;58897;51.960;5.582;2022-09-27T17:48:44;3.13;;;1.17;;
12986;SDS011;58897;51.960;5.582;2022-09-27T17:51:31;1.87;;;1.60;;
12986;SDS011;58897;51.960;5.582;2022-09-27T17:54:01;3.17;;;1.60;;
12986;SDS011;58897;51.960;5.582;2022-09-27T17:56:28;3.87;;;1.67;;
12986;SDS011;58897;51.960;5.582;2022-09-27T17:58:54;1.40;;;1.30;;